Time;durP1;ratioP1;P1;durP2;ratioP2;P2;SDS_P1;SDS_P2;PMS_P1;PMS_P2;Temp;Humidity;BMP_temperature;BMP_pressure;BME280_temperature;BME280_humidity;BME280_pressure;Samples;Min_cycle;Max_cycle;Signal;HPM_P1;HPM_P2
2022/02/25 00:00:29;;;;;;;1.23;1.13;;;4.40;63.80;;;;;;5084185;28;20207;-73
2022/02/25 00:02:56;;;;;;;2.42;1.60;;;4.40;63.80;;;;;;5095747;28;20226;-74
2022/02/25 00:05:24;;;;;;;1.85;1.40;;;4.40;63.10;;;;;;5088576;28;20209;-73
2022/02/25 00:07:52;;;;;;;1.17;1.10;;;4.30;62.80;;;;;;5077319;28;20207;-73
2022/02/25 00:10:19;;;;;;;2.30;1.40;;;4.30;62.80;;;;;;5095930;28;20289;-72
2022/02/25 00:12:47;;;;;;;3.85;1.00;;;4.30;63.20;;;;;;5095842;28;20246;-72
2022/02/25 00:15:14;;;;;;;4.43;1.40;;;4.20;62.90;;;;;;5095941;28;20236;-73
2022/02/25 00:17:41;;;;;;;1.80;0.98;;;4.20;61.10;;;;;;5088563;28;20207;-72
2022/02/25 00:20:10;;;;;;;1.38;0.85;;;4.20;58.70;;;;;;5077663;28;20226;-73
2022/02/25 00:22:37;;;;;;;3.08;1.10;;;4.20;58.20;;;;;;5082781;28;20297;-73
2022/02/25 00:25:06;;;;;;;1.05;0.77;;;4.20;57.20;;;;;;5080410;28;20235;-73
2022/02/25 00:27:33;;;;;;;1.63;1.02;;;4.10;57.60;;;;;;5081895;28;20217;-73
2022/02/25 00:30:00;;;;;;;2.58;1.30;;;4.10;57.20;;;;;;5085017;28;20217;-73
2022/02/25 00:32:27;;;;;;;2.33;1.13;;;4.10;57.10;;;;;;5088218;28;20297;-72
2022/02/25 00:34:54;;;;;;;1.95;1.15;;;4.00;57.00;;;;;;5087307;28;20234;-73
2022/02/25 00:37:21;;;;;;;2.63;1.17;;;4.00;57.60;;;;;;5087883;28;20359;-72
2022/02/25 00:39:47;;;;;;;2.20;1.05;;;3.90;57.60;;;;;;5078056;28;20273;-73
2022/02/25 00:42:16;;;;;;;3.65;1.88;;;3.90;57.30;;;;;;5081376;28;20211;-74
2022/02/25 00:44:42;;;;;;;2.00;1.20;;;3.90;57.40;;;;;;5081948;28;20290;-74
2022/02/25 00:47:10;;;;;;;2.80;1.05;;;3.90;56.70;;;;;;5075026;28;20296;-73
2022/02/25 00:49:37;;;;;;;3.65;1.30;;;3.90;56.50;;;;;;5073427;28;20233;-72
2022/02/25 00:52:04;;;;;;;1.92;0.75;;;3.90;57.10;;;;;;5072962;28;20308;-72
2022/02/25 00:54:31;;;;;;;2.53;1.23;;;3.80;57.60;;;;;;5072571;28;20729;-73
2022/02/25 00:56:58;;;;;;;1.08;1.00;;;3.80;58.40;;;;;;5072981;28;20301;-73
2022/02/25 00:59:26;;;;;;;3.67;1.20;;;3.70;58.90;;;;;;5073253;28;20318;-73
2022/02/25 01:01:53;;;;;;;3.00;1.10;;;3.70;59.90;;;;;;5072770;28;20241;-73
2022/02/25 01:04:20;;;;;;;2.70;1.15;;;3.60;61.00;;;;;;5087383;28;20622;-73
2022/02/25 01:06:48;;;;;;;2.80;1.33;;;3.60;60.70;;;;;;5093741;28;20244;-73
2022/02/25 01:09:15;;;;;;;2.17;1.20;;;3.50;60.90;;;;;;5104899;28;20244;-72
2022/02/25 01:11:42;;;;;;;5.38;1.05;;;3.50;61.50;;;;;;5094523;28;20262;-74
2022/02/25 01:14:09;;;;;;;2.75;1.27;;;3.50;62.10;;;;;;5077510;28;20257;-74
2022/02/25 01:16:38;;;;;;;2.55;1.00;;;3.40;62.30;;;;;;5085066;28;20313;-73
2022/02/25 01:19:06;;;;;;;3.90;1.25;;;3.30;62.90;;;;;;5074054;28;20201;-73
2022/02/25 01:21:32;;;;;;;3.55;1.15;;;3.30;62.90;;;;;;5090295;28;20237;-73
2022/02/25 01:23:59;;;;;;;1.15;1.05;;;3.30;62.90;;;;;;5093372;28;20229;-74
2022/02/25 01:26:27;;;;;;;4.03;1.77;;;3.30;63.40;;;;;;5093010;28;20609;-72
2022/02/25 01:28:55;;;;;;;4.05;1.20;;;3.30;62.90;;;;;;5097234;28;20288;-73
2022/02/25 01:31:23;;;;;;;1.98;1.00;;;3.20;62.80;;;;;;5100454;28;20205;-72
2022/02/25 01:33:51;;;;;;;3.60;1.13;;;3.20;63.10;;;;;;5104412;28;20229;-72
2022/02/25 01:36:18;;;;;;;3.45;1.30;;;3.20;63.30;;;;;;5101214;28;20264;-72
2022/02/25 01:38:45;;;;;;;2.17;1.27;;;3.10;63.90;;;;;;5103845;28;20208;-72
2022/02/25 01:41:12;;;;;;;2.65;0.93;;;3.10;64.20;;;;;;5098438;28;20289;-72
2022/02/25 01:43:40;;;;;;;3.20;1.50;;;3.00;64.20;;;;;;5084500;28;20221;-72
2022/02/25 01:46:07;;;;;;;1.60;0.70;;;3.00;64.60;;;;;;5072636;28;20818;-72
2022/02/25 01:48:34;;;;;;;1.73;0.90;;;3.00;64.70;;;;;;5072968;28;20210;-72
2022/02/25 01:51:02;;;;;;;2.58;1.20;;;3.00;65.10;;;;;;5072456;28;20201;-73
2022/02/25 01:53:32;;;;;;;6.70;1.40;;;3.00;65.30;;;;;;5078498;28;20756;-73
2022/02/25 01:55:59;;;;;;;4.53;1.20;;;2.90;65.40;;;;;;5081609;28;20218;-73
2022/02/25 01:58:26;;;;;;;4.80;1.30;;;2.90;65.60;;;;;;5072307;28;20210;-73
2022/02/25 02:00:53;;;;;;;3.45;0.80;;;2.90;65.50;;;;;;5074507;28;20214;-72
2022/02/25 02:03:20;;;;;;;1.00;0.90;;;2.90;65.60;;;;;;5092907;28;20316;-73
2022/02/25 02:05:47;;;;;;;3.05;1.00;;;2.90;66.00;;;;;;5092075;28;20213;-73
2022/02/25 02:08:16;;;;;;;1.40;0.95;;;2.90;66.60;;;;;;5078020;28;20293;-73
2022/02/25 02:10:43;;;;;;;3.67;0.95;;;2.80;66.80;;;;;;5078295;28;20405;-72
2022/02/25 02:13:12;;;;;;;4.05;1.48;;;2.70;68.20;;;;;;5073661;28;20225;-73
2022/02/25 02:15:39;;;;;;;4.15;0.90;;;2.80;69.20;;;;;;5085709;28;20305;-72
2022/02/25 02:18:06;;;;;;;2.25;0.88;;;2.80;68.90;;;;;;5073482;28;20210;-74
2022/02/25 02:20:33;;;;;;;4.53;1.20;;;2.70;69.20;;;;;;5072765;28;20207;-73
2022/02/25 02:23:02;;;;;;;1.60;1.00;;;2.70;69.40;;;;;;5071869;28;20228;-71
2022/02/25 02:25:28;;;;;;;3.65;1.00;;;2.70;70.20;;;;;;5072352;28;20199;-75
2022/02/25 02:30:39;;;;;;;1.77;0.90;;;2.70;71.00;;;;;;5071725;28;20281;-73
2022/02/25 02:33:06;;;;;;;2.75;1.10;;;2.60;71.00;;;;;;5071904;28;20704;-74
2022/02/25 02:35:33;;;;;;;4.70;0.90;;;2.60;71.60;;;;;;5071876;28;20226;-74
2022/02/25 02:38:02;;;;;;;1.48;1.10;;;2.60;71.00;;;;;;5072398;28;20202;-74
2022/02/25 02:40:29;;;;;;;1.40;1.05;;;2.60;71.30;;;;;;5073173;28;20205;-76
2022/02/25 02:42:56;;;;;;;3.60;0.90;;;2.60;71.80;;;;;;5087966;28;20232;-72
2022/02/25 02:45:23;;;;;;;7.97;1.60;;;2.50;71.70;;;;;;5086060;28;20200;-73
2022/02/25 02:47:50;;;;;;;4.45;1.13;;;2.50;72.40;;;;;;5072373;28;20216;-73
2022/02/25 02:50:17;;;;;;;5.38;1.70;;;2.50;72.90;;;;;;5073106;28;20202;-73
2022/02/25 02:52:44;;;;;;;0.75;0.75;;;2.50;73.60;;;;;;5091493;28;20300;-72
2022/02/25 02:55:13;;;;;;;2.95;1.05;;;2.40;73.90;;;;;;5075137;28;20202;-73
2022/02/25 02:57:40;;;;;;;2.58;0.95;;;2.40;74.20;;;;;;5092846;28;20205;-74
2022/02/25 03:00:08;;;;;;;6.82;1.00;;;2.30;74.20;;;;;;5093544;28;20300;-73
2022/02/25 03:02:35;;;;;;;4.05;1.00;;;2.30;75.00;;;;;;5077261;28;20626;-73
2022/02/25 03:05:02;;;;;;;4.43;1.10;;;2.30;75.50;;;;;;5102185;28;20231;-73
2022/02/25 03:07:28;;;;;;;3.50;0.85;;;2.20;76.40;;;;;;5091164;28;20202;-73
2022/02/25 03:09:55;;;;;;;6.75;1.35;;;2.30;76.90;;;;;;5092831;28;20208;-73
2022/02/25 03:12:23;;;;;;;2.25;1.20;;;2.20;77.20;;;;;;5075143;28;20238;-73
2022/02/25 03:14:50;;;;;;;8.40;1.40;;;2.20;77.40;;;;;;5075646;28;20226;-74
2022/02/25 03:17:17;;;;;;;4.60;1.33;;;2.20;77.70;;;;;;5075100;28;20251;-73
2022/02/25 03:19:45;;;;;;;0.95;0.63;;;2.20;77.20;;;;;;5088192;28;20288;-73
2022/02/25 03:22:12;;;;;;;4.05;0.93;;;2.20;77.60;;;;;;5096062;28;20259;-72
2022/02/25 03:24:38;;;;;;;6.65;1.88;;;2.20;78.10;;;;;;5080838;28;20296;-72
2022/02/25 03:27:06;;;;;;;5.40;1.70;;;2.20;78.10;;;;;;5078553;28;20202;-72
2022/02/25 03:29:34;;;;;;;4.75;1.88;;;2.20;78.00;;;;;;5095712;28;20216;-72
2022/02/25 03:32:01;;;;;;;4.18;1.30;;;2.20;78.20;;;;;;5095526;28;20292;-72
2022/02/25 03:34:28;;;;;;;2.92;1.10;;;2.30;78.60;;;;;;5089774;28;20309;-73
2022/02/25 03:36:55;;;;;;;3.55;1.00;;;2.30;78.00;;;;;;5096599;28;20301;-72
2022/02/25 03:39:22;;;;;;;3.53;1.38;;;2.30;77.40;;;;;;5082372;28;20293;-73
2022/02/25 03:41:49;;;;;;;8.18;1.40;;;2.30;77.60;;;;;;5090697;28;20633;-73
2022/02/25 03:44:16;;;;;;;1.83;0.90;;;2.30;77.70;;;;;;5095834;28;20263;-72
2022/02/25 03:46:44;;;;;;;7.38;1.40;;;2.30;77.80;;;;;;5095693;28;20690;-73
2022/02/25 03:49:11;;;;;;;2.45;1.20;;;2.30;77.30;;;;;;5090471;28;20281;-73
2022/02/25 03:51:37;;;;;;;4.05;1.40;;;2.30;77.90;;;;;;5084510;28;20701;-73
2022/02/25 03:54:04;;;;;;;3.70;1.00;;;2.20;78.10;;;;;;5087759;28;20256;-72
2022/02/25 03:56:31;;;;;;;5.38;1.52;;;2.10;78.10;;;;;;5104601;28;20256;-73
2022/02/25 03:58:58;;;;;;;4.30;1.08;;;2.20;79.00;;;;;;5087894;28;20652;-73
2022/02/25 04:01:25;;;;;;;6.47;1.80;;;2.20;79.10;;;;;;5097941;28;20235;-72
2022/02/25 04:03:54;;;;;;;3.72;1.42;;;2.20;79.00;;;;;;5103554;28;20225;-73
2022/02/25 04:06:21;;;;;;;2.70;1.25;;;2.30;79.10;;;;;;5093460;28;20202;-73
2022/02/25 04:08:48;;;;;;;9.23;1.45;;;2.30;79.00;;;;;;5091922;28;20255;-73
2022/02/25 04:11:16;;;;;;;2.70;1.08;;;2.20;79.00;;;;;;5101476;28;20228;-72
2022/02/25 04:13:43;;;;;;;5.25;1.30;;;2.20;79.10;;;;;;5097313;28;20280;-74
2022/02/25 04:16:10;;;;;;;6.82;1.80;;;2.30;79.10;;;;;;5095355;28;20217;-74
2022/02/25 04:18:37;;;;;;;6.43;2.25;;;2.20;79.70;;;;;;5096923;28;20284;-74
2022/02/25 04:21:05;;;;;;;5.60;1.30;;;2.20;79.00;;;;;;5108197;28;20232;-71
2022/02/25 04:23:32;;;;;;;4.63;1.67;;;2.30;79.20;;;;;;5098063;28;20218;-73
2022/02/25 04:25:59;;;;;;;2.75;1.60;;;2.30;79.10;;;;;;5077509;28;20205;-73
2022/02/25 04:28:26;;;;;;;3.70;1.15;;;2.30;79.10;;;;;;5082359;28;20210;-73
2022/02/25 04:30:54;;;;;;;4.72;1.45;;;2.20;79.00;;;;;;5085275;28;20205;-73
2022/02/25 04:33:21;;;;;;;12.63;2.58;;;2.20;79.00;;;;;;5094597;28;20237;-73
2022/02/25 04:35:48;;;;;;;4.97;1.67;;;2.30;79.20;;;;;;5081937;28;20253;-73
2022/02/25 04:38:16;;;;;;;8.43;2.15;;;2.30;79.10;;;;;;5092833;28;20261;-73
2022/02/25 04:40:43;;;;;;;4.47;1.55;;;2.30;79.20;;;;;;5100596;28;20205;-73
2022/02/25 04:43:09;;;;;;;6.35;1.45;;;2.30;79.10;;;;;;5105316;28;20293;-72
2022/02/25 04:45:36;;;;;;;9.52;1.85;;;2.30;79.10;;;;;;5108035;28;20205;-72
2022/02/25 04:48:03;;;;;;;7.88;2.45;;;2.30;78.80;;;;;;5092863;28;20205;-73
2022/02/25 04:50:31;;;;;;;11.27;3.00;;;2.30;79.00;;;;;;5077006;28;20194;-72
2022/02/25 04:52:58;;;;;;;5.00;1.52;;;2.40;78.30;;;;;;5093652;28;20780;-73
2022/02/25 04:55:26;;;;;;;4.78;1.42;;;2.30;77.80;;;;;;5090492;28;20198;-73
2022/02/25 04:57:53;;;;;;;15.95;1.90;;;2.30;78.30;;;;;;5073895;28;20232;-73
2022/02/25 05:00:20;;;;;;;5.25;1.52;;;2.30;77.90;;;;;;5093435;28;20205;-73
2022/02/25 05:02:48;;;;;;;6.80;1.92;;;2.30;78.00;;;;;;5074417;28;20234;-73
2022/02/25 05:05:15;;;;;;;4.68;1.80;;;2.30;77.70;;;;;;5087170;28;20213;-74
2022/02/25 05:07:42;;;;;;;10.63;2.35;;;2.30;77.50;;;;;;5073634;28;20206;-73
2022/02/25 05:10:10;;;;;;;3.70;1.85;;;2.40;77.40;;;;;;5077446;28;20273;-74
2022/02/25 05:12:38;;;;;;;3.15;1.45;;;2.30;77.00;;;;;;5092619;28;20231;-73
2022/02/25 05:20:35;;;;;;;6.53;2.42;;;2.30;76.10;;;;;;5073553;28;20299;-73
2022/02/25 05:23:03;;;;;;;2.75;1.65;;;2.30;76.80;;;;;;5080101;28;20280;-73
2022/02/25 05:25:31;;;;;;;4.50;2.13;;;2.30;76.40;;;;;;5075225;28;20273;-73
2022/02/25 05:28:00;;;;;;;8.20;1.88;;;2.20;76.30;;;;;;5084686;28;20277;-73
2022/02/25 05:30:28;;;;;;;8.00;2.17;;;2.30;77.80;;;;;;5086076;28;20205;-72
2022/02/25 05:32:55;;;;;;;5.25;1.95;;;2.30;77.30;;;;;;5106320;28;20221;-72
2022/02/25 05:35:22;;;;;;;3.80;1.70;;;2.30;77.40;;;;;;5112241;28;20201;-73
2022/02/25 05:37:49;;;;;;;7.03;1.95;;;2.30;76.70;;;;;;5080924;28;20241;-74
2022/02/25 05:40:18;;;;;;;3.45;1.70;;;2.40;75.80;;;;;;5081032;28;20661;-73
2022/02/25 05:42:45;;;;;;;6.20;2.10;;;2.40;75.90;;;;;;5089013;28;20206;-73
2022/02/25 05:45:14;;;;;;;8.60;1.75;;;2.40;75.40;;;;;;5110750;28;20229;-73
2022/02/25 05:47:41;;;;;;;6.68;1.52;;;2.40;75.10;;;;;;5108976;28;20236;-73
2022/02/25 05:50:12;;;;;;;5.13;2.20;;;2.40;75.30;;;;;;5104449;28;20803;-73
2022/02/25 05:52:39;;;;;;;3.40;1.58;;;2.40;75.20;;;;;;5084445;28;20218;-73
2022/02/25 05:55:07;;;;;;;4.90;2.20;;;2.40;75.00;;;;;;5089377;28;20210;-73
2022/02/25 05:57:34;;;;;;;5.43;2.10;;;2.40;75.00;;;;;;5083159;28;20265;-74
2022/02/25 06:00:01;;;;;;;9.65;1.98;;;2.40;74.90;;;;;;5084020;28;20217;-74
2022/02/25 06:02:29;;;;;;;4.90;1.50;;;2.30;75.00;;;;;;5092125;28;20205;-74
2022/02/25 06:04:56;;;;;;;1.83;1.30;;;2.30;75.20;;;;;;5101600;28;20305;-73
2022/02/25 06:07:23;;;;;;;6.07;2.15;;;2.20;75.50;;;;;;5093190;28;20265;-73
2022/02/25 06:09:50;;;;;;;8.77;2.22;;;2.30;75.60;;;;;;5107008;28;20238;-73
2022/02/25 06:12:17;;;;;;;4.32;1.70;;;2.30;75.40;;;;;;5093222;28;20270;-73
2022/02/25 06:14:44;;;;;;;9.02;4.15;;;2.30;75.20;;;;;;5088946;28;20253;-74
2022/02/25 06:17:10;;;;;;;2.70;1.50;;;2.30;75.30;;;;;;5090413;28;20230;-73
2022/02/25 06:19:39;;;;;;;13.70;2.63;;;2.30;75.60;;;;;;5090419;28;20229;-74
2022/02/25 06:22:06;;;;;;;7.40;2.38;;;2.30;75.30;;;;;;5104578;28;20201;-73
2022/02/25 06:24:33;;;;;;;3.47;1.90;;;2.30;75.60;;;;;;5089386;28;20233;-74
2022/02/25 06:27:00;;;;;;;5.72;2.30;;;2.40;76.10;;;;;;5090031;28;20266;-74
2022/02/25 06:29:27;;;;;;;5.35;2.05;;;2.40;75.50;;;;;;5085295;28;20654;-73
2022/02/25 06:31:53;;;;;;;4.68;2.13;;;2.50;75.70;;;;;;5091885;28;20205;-73
2022/02/25 06:34:20;;;;;;;5.25;1.80;;;2.50;73.90;;;;;;5090399;28;20276;-74
2022/02/25 06:36:48;;;;;;;7.60;2.63;;;2.40;73.70;;;;;;5085895;28;20221;-74
2022/02/25 06:39:16;;;;;;;9.65;2.47;;;2.40;74.00;;;;;;5084475;28;20240;-73
2022/02/25 06:41:43;;;;;;;4.70;1.85;;;2.40;74.00;;;;;;5084891;28;20202;-75
2022/02/25 06:44:09;;;;;;;8.30;1.92;;;2.40;74.00;;;;;;5094332;28;20312;-74
2022/02/25 06:46:38;;;;;;;9.18;2.55;;;2.40;74.00;;;;;;5084621;28;20239;-74
2022/02/25 06:49:05;;;;;;;7.15;2.20;;;2.60;73.50;;;;;;5075701;28;20242;-74
2022/02/25 06:51:32;;;;;;;5.35;2.17;;;2.60;73.10;;;;;;5088343;28;20214;-73
2022/02/25 06:54:01;;;;;;;5.30;2.00;;;2.60;73.30;;;;;;5094964;28;20248;-74
2022/02/25 06:56:28;;;;;;;10.55;2.35;;;2.70;72.70;;;;;;5097269;28;20247;-74
2022/02/25 06:58:55;;;;;;;8.35;2.30;;;2.70;72.20;;;;;;5085022;28;20569;-75
2022/02/25 07:01:21;;;;;;;2.65;1.63;;;2.70;71.50;;;;;;5075363;28;20305;-72
2022/02/25 07:03:48;;;;;;;6.97;2.03;;;2.80;71.10;;;;;;5096311;28;20228;-73
2022/02/25 07:06:15;;;;;;;3.78;1.50;;;2.90;71.20;;;;;;5077527;28;20626;-74
2022/02/25 07:08:42;;;;;;;5.18;2.03;;;2.80;71.10;;;;;;5079603;28;20337;-73
2022/02/25 07:11:10;;;;;;;10.70;1.70;;;3.00;71.30;;;;;;5078521;28;20685;-73
2022/02/25 07:13:37;;;;;;;11.07;1.83;;;3.00;70.40;;;;;;5076972;28;20229;-74
2022/02/25 07:16:04;;;;;;;6.38;2.00;;;3.20;69.80;;;;;;5096169;28;20202;-74
2022/02/25 07:18:31;;;;;;;7.53;1.80;;;3.30;68.40;;;;;;5092762;28;20285;-73
2022/02/25 07:20:58;;;;;;;7.07;1.60;;;3.50;67.70;;;;;;5087109;28;20230;-73
2022/02/25 07:23:25;;;;;;;4.75;1.95;;;3.60;67.40;;;;;;5078968;28;20227;-76
2022/02/25 07:25:52;;;;;;;4.78;2.20;;;3.80;65.80;;;;;;5087938;28;20206;-72
2022/02/25 07:28:21;;;;;;;6.22;2.13;;;3.90;64.20;;;;;;5091152;28;20271;-72
2022/02/25 07:30:48;;;;;;;5.35;2.20;;;4.00;63.50;;;;;;5078932;28;20226;-72
2022/02/25 07:33:15;;;;;;;6.47;1.83;;;4.10;62.80;;;;;;5098709;28;20222;-73
2022/02/25 07:35:42;;;;;;;5.32;2.28;;;4.20;62.20;;;;;;5115420;28;20190;-72
2022/02/25 07:38:08;;;;;;;6.85;2.03;;;4.20;61.30;;;;;;5103524;28;20258;-71
2022/02/25 07:40:35;;;;;;;4.38;1.70;;;4.20;60.90;;;;;;5111988;28;20193;-72
2022/02/25 07:43:02;;;;;;;4.97;1.70;;;4.20;60.60;;;;;;5114164;28;20222;-72
2022/02/25 07:45:31;;;;;;;3.92;1.40;;;4.20;60.40;;;;;;5107438;28;20202;-71
2022/02/25 07:47:58;;;;;;;6.07;1.55;;;4.10;60.80;;;;;;5114560;28;20265;-72
2022/02/25 07:50:25;;;;;;;4.82;1.80;;;4.10;60.40;;;;;;5098621;28;20235;-72
2022/02/25 07:52:52;;;;;;;5.53;2.00;;;4.10;60.90;;;;;;5104557;28;20242;-73
2022/02/25 07:55:20;;;;;;;4.15;1.70;;;4.20;61.10;;;;;;5110929;28;20203;-72
2022/02/25 07:57:47;;;;;;;7.95;1.98;;;4.30;60.60;;;;;;5110225;28;20278;-73
2022/02/25 08:00:16;;;;;;;9.00;2.28;;;4.40;60.40;;;;;;5110557;28;20224;-71
2022/02/25 08:02:44;;;;;;;3.30;2.65;;;4.50;59.50;;;;;;5109896;28;20204;-72
2022/02/25 08:05:11;;;;;;;5.25;2.10;;;4.70;58.80;;;;;;5110999;28;20206;-72
2022/02/25 08:07:38;;;;;;;3.90;1.75;;;4.90;58.00;;;;;;5096828;28;20231;-73
2022/02/25 08:10:06;;;;;;;4.97;1.88;;;5.00;57.20;;;;;;5095542;28;20241;-74
2022/02/25 08:12:33;;;;;;;3.78;1.52;;;5.10;56.90;;;;;;5093016;28;20246;-73
2022/02/25 08:15:00;;;;;;;5.70;1.80;;;5.00;55.30;;;;;;5086587;28;20236;-74
2022/02/25 08:17:27;;;;;;;6.07;2.00;;;5.00;55.80;;;;;;5092112;28;20218;-74
2022/02/25 08:19:56;;;;;;;6.53;2.20;;;5.00;56.00;;;;;;5083183;28;20294;-73
2022/02/25 08:22:23;;;;;;;3.88;1.95;;;4.90;55.20;;;;;;5087159;28;20217;-72
2022/02/25 08:24:51;;;;;;;6.78;1.80;;;4.80;56.20;;;;;;5108113;28;20229;-73
2022/02/25 08:27:18;;;;;;;4.43;2.40;;;4.60;56.80;;;;;;5094271;28;20207;-73
2022/02/25 08:29:45;;;;;;;15.05;3.05;;;4.60;57.20;;;;;;5083893;28;20306;-72
2022/02/25 08:32:13;;;;;;;8.93;2.88;;;4.60;57.80;;;;;;5091384;28;20271;-73
2022/02/25 08:34:40;;;;;;;6.80;2.30;;;4.80;57.70;;;;;;5100880;28;20314;-72
2022/02/25 08:37:09;;;;;;;5.95;2.15;;;4.80;57.10;;;;;;5105655;28;20324;-73
2022/02/25 08:39:37;;;;;;;6.35;2.63;;;4.90;56.60;;;;;;5095248;28;20214;-73
2022/02/25 08:42:04;;;;;;;5.40;2.28;;;5.00;55.90;;;;;;5110553;28;20619;-72
2022/02/25 08:44:31;;;;;;;7.63;1.95;;;5.10;55.40;;;;;;5113440;28;20247;-72
2022/02/25 08:46:58;;;;;;;4.65;1.77;;;5.20;55.50;;;;;;5112757;28;20211;-72
2022/02/25 08:49:25;;;;;;;5.40;2.38;;;5.20;54.40;;;;;;5088741;28;20207;-73
2022/02/25 08:51:52;;;;;;;5.57;2.10;;;5.30;54.50;;;;;;5093038;28;20241;-72
2022/02/25 08:54:21;;;;;;;12.00;2.53;;;5.40;54.00;;;;;;5115288;28;20286;-72
2022/02/25 08:56:48;;;;;;;11.57;2.63;;;5.40;53.30;;;;;;5098359;28;20282;-73
2022/02/25 08:59:15;;;;;;;4.15;1.90;;;5.50;53.40;;;;;;5092602;28;20289;-72
2022/02/25 09:01:41;;;;;;;9.18;2.03;;;5.70;52.60;;;;;;5093260;28;20209;-72
2022/02/25 09:04:09;;;;;;;5.32;2.97;;;5.60;51.80;;;;;;5097239;28;20241;-74
2022/02/25 09:06:38;;;;;;;4.07;2.10;;;5.80;51.30;;;;;;5093284;28;20210;-73
2022/02/25 09:09:05;;;;;;;7.80;2.50;;;5.80;52.00;;;;;;5091014;28;20268;-73
2022/02/25 09:11:33;;;;;;;9.95;2.40;;;5.90;51.40;;;;;;5093196;28;20287;-73
2022/02/25 09:14:00;;;;;;;5.53;2.22;;;6.10;50.40;;;;;;5095874;28;20232;-74
2022/02/25 09:16:27;;;;;;;6.85;1.90;;;6.20;49.40;;;;;;5089590;28;20303;-73
2022/02/25 09:18:55;;;;;;;5.80;2.03;;;6.10;48.80;;;;;;5075121;28;20258;-72
2022/02/25 09:21:22;;;;;;;10.18;1.92;;;6.20;49.30;;;;;;5078582;28;20198;-73
2022/02/25 09:23:50;;;;;;;10.55;2.50;;;6.30;48.90;;;;;;5079736;28;20228;-74
2022/02/25 09:26:17;;;;;;;6.43;1.83;;;6.30;48.70;;;;;;5078071;28;20203;-72
2022/02/25 09:28:46;;;;;;;9.88;2.45;;;6.30;47.80;;;;;;5095493;28;20204;-73
2022/02/25 09:31:13;;;;;;;6.15;2.10;;;6.30;47.60;;;;;;5091824;28;20209;-73
2022/02/25 09:33:40;;;;;;;6.15;2.22;;;6.50;47.70;;;;;;5091400;28;20222;-73
2022/02/25 09:36:08;;;;;;;5.00;2.35;;;6.60;47.30;;;;;;5092876;28;20675;-74
2022/02/25 09:38:36;;;;;;;6.10;2.40;;;6.80;47.50;;;;;;5073759;28;20227;-76
2022/02/25 09:41:05;;;;;;;4.20;2.58;;;6.90;47.60;;;;;;5083923;28;20752;-76
2022/02/25 09:43:33;;;;;;;6.22;1.95;;;7.00;47.50;;;;;;5093987;28;20230;-76
2022/02/25 09:46:04;;;;;;;4.97;2.17;;;7.00;46.00;;;;;;5094266;28;20239;-75
2022/02/25 09:48:32;;;;;;;9.48;2.25;;;7.00;46.80;;;;;;5075419;28;20567;-75
2022/02/25 09:50:59;;;;;;;4.20;2.13;;;7.10;46.10;;;;;;5088026;28;20290;-76
2022/02/25 09:53:26;;;;;;;7.78;2.80;;;7.10;46.00;;;;;;5093153;28;20234;-75
2022/02/25 09:55:53;;;;;;;5.32;2.65;;;7.20;46.00;;;;;;5092722;28;20597;-75
2022/02/25 09:58:20;;;;;;;7.20;1.85;;;7.30;46.00;;;;;;5084664;28;20232;-75
2022/02/25 10:00:47;;;;;;;9.15;2.22;;;7.20;45.60;;;;;;5094723;28;20230;-75
2022/02/25 10:03:18;;;;;;;6.32;2.38;;;7.20;45.60;;;;;;5095353;28;20235;-75
2022/02/25 10:05:46;;;;;;;3.97;2.35;;;7.20;45.50;;;;;;5087509;28;20228;-75
2022/02/25 10:08:15;;;;;;;5.35;2.45;;;7.20;45.60;;;;;;5086691;28;20211;-74
2022/02/25 10:10:48;;;;;;;8.48;2.40;;;7.20;46.20;;;;;;5099382;28;20596;-75
2022/02/25 10:13:19;;;;;;;2.83;1.90;;;7.30;45.60;;;;;;5100038;28;20265;-75
2022/02/25 10:15:48;;;;;;;5.75;2.08;;;7.50;44.70;;;;;;5100315;28;20610;-75
2022/02/25 10:18:18;;;;;;;7.90;2.50;;;7.60;44.30;;;;;;5089318;28;20220;-75
2022/02/25 10:20:47;;;;;;;9.13;2.83;;;7.70;44.10;;;;;;5087254;28;20243;-75
2022/02/25 10:23:22;;;;;;;3.45;1.65;;;7.90;43.90;;;;;;5109426;28;20314;-75
2022/02/25 10:25:50;;;;;;;5.47;2.55;;;7.90;43.60;;;;;;5115671;28;20216;-75
2022/02/25 10:28:29;;;;;;;5.80;2.50;;;8.00;43.20;;;;;;5097552;28;20229;-75
2022/02/25 10:31:29;;;;;;;7.22;2.65;;;8.10;42.30;;;;;;5098986;28;20218;-73
2022/02/25 10:34:07;;;;;;;9.43;2.30;;;8.30;42.60;;;;;;5098481;28;20232;-76
2022/02/25 10:36:44;;;;;;;8.43;2.15;;;8.40;42.00;;;;;;5097374;28;20192;-74
2022/02/25 10:39:12;;;;;;;6.05;1.95;;;8.40;41.60;;;;;;5095000;28;20233;-75
2022/02/25 10:41:40;;;;;;;9.55;2.05;;;8.60;40.30;;;;;;5092568;28;20252;-75
2022/02/25 10:44:08;;;;;;;3.92;2.00;;;8.50;40.20;;;;;;5085893;28;20226;-74
2022/02/25 10:46:35;;;;;;;4.65;1.95;;;8.80;39.40;;;;;;5084740;28;20207;-74
2022/02/25 10:49:09;;;;;;;10.48;1.77;;;8.90;39.50;;;;;;5084677;28;20235;-74
2022/02/25 10:51:37;;;;;;;5.30;2.35;;;9.30;39.90;;;;;;5085548;28;20202;-75
2022/02/25 10:54:05;;;;;;;4.75;1.95;;;9.50;39.80;;;;;;5090647;28;20226;-75
2022/02/25 10:56:44;;;;;;;6.15;2.10;;;9.60;38.90;;;;;;5097985;28;20270;-77
2022/02/25 10:59:13;;;;;;;7.32;2.40;;;9.50;40.10;;;;;;5095205;28;20291;-75
2022/02/25 11:01:42;;;;;;;9.38;2.55;;;9.30;39.90;;;;;;5095430;28;20212;-76
2022/02/25 11:04:13;;;;;;;9.82;2.40;;;9.10;39.40;;;;;;5091471;28;20303;-74
2022/02/25 11:06:41;;;;;;;7.55;2.05;;;9.10;39.70;;;;;;5091499;28;20256;-76
2022/02/25 11:09:09;;;;;;;5.55;2.00;;;9.20;39.80;;;;;;5089472;28;20233;-75
2022/02/25 11:11:36;;;;;;;6.28;2.20;;;9.20;38.60;;;;;;5086805;28;20198;-76
2022/02/25 11:14:05;;;;;;;8.10;2.10;;;9.10;39.00;;;;;;5090531;28;20237;-76
2022/02/25 11:16:33;;;;;;;7.30;2.10;;;9.00;38.90;;;;;;5093584;28;20205;-75
2022/02/25 11:19:03;;;;;;;6.80;2.53;;;8.90;39.50;;;;;;5092344;28;20242;-76
2022/02/25 11:21:33;;;;;;;5.45;1.95;;;8.90;39.50;;;;;;5082886;28;20679;-75
2022/02/25 11:24:01;;;;;;;4.53;1.77;;;8.90;39.50;;;;;;5083216;28;20222;-75
2022/02/25 11:26:28;;;;;;;4.60;2.05;;;8.70;39.40;;;;;;5082757;28;20236;-75
2022/02/25 11:29:00;;;;;;;4.75;1.90;;;8.50;40.40;;;;;;5083611;28;20236;-74
2022/02/25 11:31:32;;;;;;;8.27;2.22;;;8.60;40.20;;;;;;5082756;28;20214;-74
2022/02/25 11:34:00;;;;;;;7.72;2.35;;;8.50;40.10;;;;;;5081841;28;20275;-76
2022/02/25 11:36:44;;;;;;;6.45;2.35;;;8.40;40.10;;;;;;5081595;28;20205;-75
2022/02/25 11:39:22;;;;;;;12.23;2.13;;;8.40;39.90;;;;;;5089974;28;20833;-73
2022/02/25 11:41:50;;;;;;;9.75;2.58;;;8.30;40.30;;;;;;5098311;28;20210;-73
2022/02/25 11:44:18;;;;;;;7.90;1.95;;;8.30;40.50;;;;;;5100533;28;20325;-74
2022/02/25 11:46:45;;;;;;;8.88;2.08;;;8.30;39.80;;;;;;5101647;28;20205;-74
2022/02/25 11:49:19;;;;;;;8.23;1.90;;;8.20;40.20;;;;;;5103143;28;20706;-75
2022/02/25 11:51:58;;;;;;;6.93;2.28;;;8.20;40.70;;;;;;5102488;28;20221;-74
2022/02/25 11:54:28;;;;;;;9.43;2.38;;;8.20;40.80;;;;;;5102373;28;20726;-74
2022/02/25 11:57:32;;;;;;;3.83;2.00;;;8.10;40.70;;;;;;5104087;28;20234;-74
2022/02/25 12:00:22;;;;;;;6.32;1.73;;;8.00;41.30;;;;;;5099733;28;20250;-75
2022/02/25 12:03:12;;;;;;;5.68;2.00;;;8.20;41.40;;;;;;5099041;28;20319;-75
2022/02/25 12:05:44;;;;;;;6.97;2.00;;;8.30;41.10;;;;;;5088309;28;20497;-75
2022/02/25 12:08:30;;;;;;;8.15;2.08;;;8.50;40.30;;;;;;5103775;28;20230;-75
2022/02/25 12:11:22;;;;;;;9.48;2.20;;;8.40;40.20;;;;;;5083569;28;20297;-74
2022/02/25 12:13:49;;;;;;;5.50;2.03;;;8.40;39.70;;;;;;5082473;28;20228;-74
2022/02/25 12:16:39;;;;;;;4.65;1.60;;;8.30;39.70;;;;;;5098270;28;20280;-74
2022/02/25 12:19:23;;;;;;;6.38;2.55;;;8.30;40.00;;;;;;5090119;28;20245;-73
2022/02/25 12:21:50;;;;;;;4.07;1.50;;;8.20;39.60;;;;;;5075388;28;20285;-74
2022/02/25 12:24:18;;;;;;;5.00;1.70;;;8.20;39.50;;;;;;5077941;28;20221;-75
2022/02/25 12:26:58;;;;;;;3.92;1.45;;;8.00;40.60;;;;;;5077822;28;20213;-74
2022/02/25 12:29:34;;;;;;;8.82;1.77;;;7.80;42.10;;;;;;5077659;28;20287;-74
2022/02/25 12:32:01;;;;;;;2.85;1.20;;;7.80;42.30;;;;;;5077895;28;20244;-75
2022/02/25 12:34:29;;;;;;;8.98;1.60;;;7.80;42.10;;;;;;5078223;28;20347;-73
2022/02/25 12:36:57;;;;;;;6.15;1.35;;;7.70;41.00;;;;;;5076719;28;20277;-73
2022/02/25 12:39:34;;;;;;;6.13;1.60;;;7.80;41.30;;;;;;5083849;28;20696;-73
2022/02/25 12:42:07;;;;;;;3.13;1.38;;;7.70;40.10;;;;;;5099827;28;20543;-74
2022/02/25 12:44:36;;;;;;;7.25;1.85;;;7.60;39.40;;;;;;5094433;28;20212;-74
2022/02/25 12:47:07;;;;;;;7.35;1.92;;;7.50;40.10;;;;;;5090830;28;20219;-74
2022/02/25 12:49:36;;;;;;;7.53;2.35;;;7.50;40.80;;;;;;5105489;28;20624;-74
2022/02/25 12:52:06;;;;;;;8.20;2.45;;;7.30;44.20;;;;;;5092594;28;20210;-74
2022/02/25 12:54:37;;;;;;;11.95;2.30;;;7.10;48.20;;;;;;5075471;28;20255;-74
2022/02/25 12:57:07;;;;;;;5.07;1.40;;;6.90;47.60;;;;;;5077157;28;20968;-74
2022/02/25 12:59:36;;;;;;;5.20;2.28;;;6.80;47.50;;;;;;5097820;28;20225;-74
2022/02/25 13:02:06;;;;;;;8.90;1.70;;;6.70;49.60;;;;;;5095440;28;20208;-74
2022/02/25 13:04:40;;;;;;;4.22;1.40;;;6.80;49.30;;;;;;5092309;28;20315;-73
2022/02/25 13:07:08;;;;;;;6.18;1.80;;;6.90;48.20;;;;;;5104079;28;20230;-74
2022/02/25 13:09:38;;;;;;;7.18;2.42;;;7.00;49.30;;;;;;5106266;28;20202;-74